sensor_id;sensor_type;location;lat;lon;timestamp;pressure;altitude;pressure_sealevel;temperature;humidity
63096;BME280;49184;55.596;37.770;2022-10-22T00:02:12;100045.56;;;8.65;68.23
63096;BME280;49184;55.596;37.770;2022-10-22T00:05:03;100060.47;;;8.73;68.28
63096;BME280;49184;55.596;37.770;2022-10-22T00:07:48;100040.91;;;8.66;68.48
63096;BME280;49184;55.596;37.770;2022-10-22T00:10:18;100055.56;;;8.75;68.22
63096;BME280;49184;55.596;37.770;2022-10-22T00:12:44;100082.47;;;8.87;68.28
63096;BME280;49184;55.596;37.770;2022-10-22T00:15:11;100060.78;;;8.72;68.31
63096;BME280;49184;55.596;37.770;2022-10-22T00:17:37;100043.94;;;8.59;68.69
63096;BME280;49184;55.596;37.770;2022-10-22T00:20:04;100048.09;;;8.52;69.85
63096;BME280;49184;55.596;37.770;2022-10-22T00:22:31;100044.81;;;8.50;69.95
63096;BME280;49184;55.596;37.770;2022-10-22T00:25:15;100048.84;;;8.62;69.64
63096;BME280;49184;55.596;37.770;2022-10-22T00:27:41;100070.34;;;8.69;69.75
63096;BME280;49184;55.596;37.770;2022-10-22T00:30:08;100060.31;;;8.59;69.92
63096;BME280;49184;55.596;37.770;2022-10-22T00:32:35;100066.88;;;8.53;69.98
63096;BME280;49184;55.596;37.770;2022-10-22T00:35:01;100064.19;;;8.48;70.36
63096;BME280;49184;55.596;37.770;2022-10-22T00:37:28;100040.25;;;8.35;70.75
63096;BME280;49184;55.596;37.770;2022-10-22T00:39:55;100064.63;;;8.65;70.12
63096;BME280;49184;55.596;37.770;2022-10-22T00:42:33;100029.03;;;8.46;69.80
63096;BME280;49184;55.596;37.770;2022-10-22T00:45:24;100048.91;;;8.52;70.06
63096;BME280;49184;55.596;37.770;2022-10-22T00:48:01;100045.06;;;8.53;70.33
63096;BME280;49184;55.596;37.770;2022-10-22T00:51:00;100051.25;;;8.64;70.19
63096;BME280;49184;55.596;37.770;2022-10-22T00:53:48;100038.78;;;8.58;69.40
63096;BME280;49184;55.596;37.770;2022-10-22T00:56:16;100051.00;;;8.60;69.55
63096;BME280;49184;55.596;37.770;2022-10-22T00:58:45;100064.34;;;8.67;69.78
63096;BME280;49184;55.596;37.770;2022-10-22T01:01:31;100047.53;;;8.55;69.77
63096;BME280;49184;55.596;37.770;2022-10-22T01:04:15;100032.84;;;8.45;70.19
63096;BME280;49184;55.596;37.770;2022-10-22T01:07:00;100029.84;;;8.47;70.01
63096;BME280;49184;55.596;37.770;2022-10-22T01:09:53;100033.59;;;8.56;69.89
63096;BME280;49184;55.596;37.770;2022-10-22T01:15:40;100034.66;;;8.60;69.62
63096;BME280;49184;55.596;37.770;2022-10-22T01:29:32;100030.41;;;8.44;69.88
63096;BME280;49184;55.596;37.770;2022-10-22T01:32:21;100054.53;;;8.66;69.67
63096;BME280;49184;55.596;37.770;2022-10-22T01:35:05;100032.59;;;8.42;69.74
63096;BME280;49184;55.596;37.770;2022-10-22T01:37:35;100072.50;;;8.72;69.38
63096;BME280;49184;55.596;37.770;2022-10-22T01:40:04;100073.56;;;8.76;69.54
63096;BME280;49184;55.596;37.770;2022-10-22T01:42:31;100049.66;;;8.63;69.53
63096;BME280;49184;55.596;37.770;2022-10-22T01:44:57;100075.16;;;8.77;69.38
63096;BME280;49184;55.596;37.770;2022-10-22T01:53:31;100074.97;;;8.68;69.86
63096;BME280;49184;55.596;37.770;2022-10-22T02:01:55;100082.59;;;8.66;69.67
63096;BME280;49184;55.596;37.770;2022-10-22T02:04:25;100076.03;;;8.67;69.54
63096;BME280;49184;55.596;37.770;2022-10-22T02:07:14;100050.78;;;8.57;69.42
63096;BME280;49184;55.596;37.770;2022-10-22T02:09:43;100085.00;;;8.73;69.35
63096;BME280;49184;55.596;37.770;2022-10-22T02:12:30;100076.03;;;8.73;69.34
63096;BME280;49184;55.596;37.770;2022-10-22T02:14:58;100075.47;;;8.70;69.49
63096;BME280;49184;55.596;37.770;2022-10-22T02:17:45;100033.66;;;8.46;69.49
63096;BME280;49184;55.596;37.770;2022-10-22T02:20:16;100051.56;;;8.57;69.26
63096;BME280;49184;55.596;37.770;2022-10-22T02:23:02;100063.84;;;8.60;69.43
63096;BME280;49184;55.596;37.770;2022-10-22T02:25:29;100080.19;;;8.60;69.78
63096;BME280;49184;55.596;37.770;2022-10-22T02:28:01;100082.66;;;8.56;69.97
63096;BME280;49184;55.596;37.770;2022-10-22T02:30:29;100092.56;;;8.42;70.10
63096;BME280;49184;55.596;37.770;2022-10-22T02:33:09;100092.50;;;8.52;70.10
63096;BME280;49184;55.596;37.770;2022-10-22T02:35:40;100092.50;;;8.52;70.11
63096;BME280;49184;55.596;37.770;2022-10-22T02:38:26;100080.25;;;8.50;69.88
63096;BME280;49184;55.596;37.770;2022-10-22T02:40:53;100044.69;;;8.15;70.06
63096;BME280;49184;55.596;37.770;2022-10-22T02:43:19;100083.31;;;8.38;70.65
63096;BME280;49184;55.596;37.770;2022-10-22T02:45:45;100064.22;;;8.33;70.22
63096;BME280;49184;55.596;37.770;2022-10-22T02:48:12;100092.00;;;8.40;70.56
63096;BME280;49184;55.596;37.770;2022-10-22T02:50:56;100076.47;;;8.40;70.21
63096;BME280;49184;55.596;37.770;2022-10-22T02:53:22;100061.75;;;8.36;70.23
63096;BME280;49184;55.596;37.770;2022-10-22T02:56:06;100076.97;;;8.47;69.96
63096;BME280;49184;55.596;37.770;2022-10-22T02:58:51;100092.75;;;8.56;69.96
63096;BME280;49184;55.596;37.770;2022-10-22T03:01:17;100090.81;;;8.61;69.79
63096;BME280;49184;55.596;37.770;2022-10-22T03:03:43;100037.53;;;8.30;69.64
63096;BME280;49184;55.596;37.770;2022-10-22T03:06:09;100090.03;;;8.56;69.50
63096;BME280;49184;55.596;37.770;2022-10-22T03:08:53;100042.19;;;8.29;69.51
63096;BME280;49184;55.596;37.770;2022-10-22T03:11:19;100099.56;;;8.53;69.71
63096;BME280;49184;55.596;37.770;2022-10-22T03:13:45;100087.38;;;8.40;70.12
63096;BME280;49184;55.596;37.770;2022-10-22T03:16:11;100099.56;;;8.53;69.92
63096;BME280;49184;55.596;37.770;2022-10-22T03:18:37;100042.19;;;8.24;69.71
63096;BME280;49184;55.596;37.770;2022-10-22T03:21:31;100087.84;;;8.53;69.63
63096;BME280;49184;55.596;37.770;2022-10-22T03:24:23;100078.63;;;8.43;69.58
63096;BME280;49184;55.596;37.770;2022-10-22T03:26:51;100098.19;;;8.56;69.64
63096;BME280;49184;55.596;37.770;2022-10-22T03:29:18;100091.38;;;8.58;69.57
63096;BME280;49184;55.596;37.770;2022-10-22T03:31:46;100040.00;;;8.26;69.37
63096;BME280;49184;55.596;37.770;2022-10-22T03:34:31;100100.38;;;8.59;69.37
63096;BME280;49184;55.596;37.770;2022-10-22T03:36:59;100072.06;;;8.50;69.61
63096;BME280;49184;55.596;37.770;2022-10-22T03:39:28;100084.81;;;8.64;69.11
63096;BME280;49184;55.596;37.770;2022-10-22T03:41:55;100052.44;;;8.47;69.25
63096;BME280;49184;55.596;37.770;2022-10-22T03:44:22;100069.09;;;8.51;69.38
63096;BME280;49184;55.596;37.770;2022-10-22T03:46:48;100051.13;;;8.40;69.23
63096;BME280;49184;55.596;37.770;2022-10-22T03:52:14;100077.50;;;8.55;69.47
63096;BME280;49184;55.596;37.770;2022-10-22T03:54:40;100057.63;;;8.49;69.25
63096;BME280;49184;55.596;37.770;2022-10-22T03:57:07;100060.38;;;8.44;69.37
63096;BME280;49184;55.596;37.770;2022-10-22T03:59:35;100088.06;;;8.66;69.20
63096;BME280;49184;55.596;37.770;2022-10-22T04:02:20;100088.28;;;8.75;68.89
63096;BME280;49184;55.596;37.770;2022-10-22T04:04:46;100040.50;;;8.43;68.80
63096;BME280;49184;55.596;37.770;2022-10-22T04:07:12;100066.28;;;8.61;68.95
63096;BME280;49184;55.596;37.770;2022-10-22T04:09:38;100063.03;;;8.59;69.00
63096;BME280;49184;55.596;37.770;2022-10-22T04:12:05;100089.97;;;8.71;68.82
63096;BME280;49184;55.596;37.770;2022-10-22T04:14:51;100056.28;;;8.46;69.14
63096;BME280;49184;55.596;37.770;2022-10-22T04:17:17;100053.59;;;8.41;69.45
63096;BME280;49184;55.596;37.770;2022-10-22T04:19:43;100074.47;;;8.61;69.03
63096;BME280;49184;55.596;37.770;2022-10-22T04:22:15;100066.88;;;8.53;68.92
63096;BME280;49184;55.596;37.770;2022-10-22T04:24:42;100097.28;;;8.76;69.05
63096;BME280;49184;55.596;37.770;2022-10-22T04:27:08;100068.78;;;8.58;68.88
63096;BME280;49184;55.596;37.770;2022-10-22T04:29:34;100075.03;;;8.53;69.11
63096;BME280;49184;55.596;37.770;2022-10-22T04:32:00;100076.97;;;8.47;69.40
63096;BME280;49184;55.596;37.770;2022-10-22T04:34:45;100053.91;;;8.24;69.55
63096;BME280;49184;55.596;37.770;2022-10-22T04:37:29;100100.13;;;8.55;69.49
63096;BME280;49184;55.596;37.770;2022-10-22T04:39:57;100079.19;;;8.40;69.18
63096;BME280;49184;55.596;37.770;2022-10-22T04:42:23;100095.19;;;8.57;69.67
63096;BME280;49184;55.596;37.770;2022-10-22T04:44:49;100095.97;;;8.68;69.61
63096;BME280;49184;55.596;37.770;2022-10-22T04:50:03;100091.06;;;8.65;68.98
63096;BME280;49184;55.596;37.770;2022-10-22T04:52:30;100073.69;;;8.51;69.26
63096;BME280;49184;55.596;37.770;2022-10-22T04:54:56;100104.91;;;8.74;69.49
63096;BME280;49184;55.596;37.770;2022-10-22T04:57:23;100097.84;;;8.67;69.54
63096;BME280;49184;55.596;37.770;2022-10-22T04:59:50;100051.44;;;8.38;69.26
63096;BME280;49184;55.596;37.770;2022-10-22T05:02:16;100095.13;;;8.67;69.35
63096;BME280;49184;55.596;37.770;2022-10-22T05:04:43;100119.38;;;8.74;69.59
63096;BME280;49184;55.596;37.770;2022-10-22T05:07:09;100101.41;;;8.68;69.55
63096;BME280;49184;55.596;37.770;2022-10-22T05:09:35;100099.78;;;8.67;69.47
63096;BME280;49184;55.596;37.770;2022-10-22T05:12:02;100116.34;;;8.81;69.52
63096;BME280;49184;55.596;37.770;2022-10-22T05:14:28;100091.38;;;8.58;69.55
63096;BME280;49184;55.596;37.770;2022-10-22T05:16:54;100060.41;;;8.39;69.19
63096;BME280;49184;55.596;37.770;2022-10-22T05:19:28;100119.97;;;8.61;69.55
63096;BME280;49184;55.596;37.770;2022-10-22T05:21:58;100116.22;;;8.52;69.92
63096;BME280;49184;55.596;37.770;2022-10-22T05:24:26;100093.06;;;8.49;70.02
63096;BME280;49184;55.596;37.770;2022-10-22T05:26:55;100118.53;;;8.74;69.87
63096;BME280;49184;55.596;37.770;2022-10-22T05:29:26;100117.53;;;8.64;69.75
63096;BME280;49184;55.596;37.770;2022-10-22T05:31:54;100093.31;;;8.53;69.62
63096;BME280;49184;55.596;37.770;2022-10-22T05:34:20;100078.09;;;8.36;69.90
63096;BME280;49184;55.596;37.770;2022-10-22T05:36:48;100097.97;;;8.47;69.90
63096;BME280;49184;55.596;37.770;2022-10-22T05:39:15;100124.56;;;8.70;69.79
63096;BME280;49184;55.596;37.770;2022-10-22T05:41:42;100127.50;;;8.79;69.79
63096;BME280;49184;55.596;37.770;2022-10-22T05:44:10;100110.91;;;8.76;69.49
63096;BME280;49184;55.596;37.770;2022-10-22T05:46:37;100132.63;;;8.91;69.74
63096;BME280;49184;55.596;37.770;2022-10-22T05:49:06;100133.72;;;8.90;69.37
63096;BME280;49184;55.596;37.770;2022-10-22T05:51:34;100134.00;;;8.88;69.52
63096;BME280;49184;55.596;37.770;2022-10-22T05:56:32;100126.94;;;8.87;69.81
63096;BME280;49184;55.596;37.770;2022-10-22T05:58:59;100113.34;;;8.77;69.62
63096;BME280;49184;55.596;37.770;2022-10-22T06:01:30;100125.09;;;8.78;69.72
63096;BME280;49184;55.596;37.770;2022-10-22T06:03:59;100139.78;;;8.82;69.79
63096;BME280;49184;55.596;37.770;2022-10-22T06:11:51;100144.34;;;8.91;69.26
63096;BME280;49184;55.596;37.770;2022-10-22T06:14:19;100138.72;;;8.78;69.72
63096;BME280;49184;55.596;37.770;2022-10-22T06:16:46;100100.88;;;8.61;69.80
63096;BME280;49184;55.596;37.770;2022-10-22T06:19:16;100146.84;;;8.83;69.11
63096;BME280;49184;55.596;37.770;2022-10-22T06:21:43;100118.03;;;8.72;69.82
63096;BME280;49184;55.596;37.770;2022-10-22T06:24:11;100119.34;;;8.79;69.43
63096;BME280;49184;55.596;37.770;2022-10-22T06:26:40;100111.22;;;8.64;69.45
63096;BME280;49184;55.596;37.770;2022-10-22T06:29:07;100123.97;;;8.79;69.26
63096;BME280;49184;55.596;37.770;2022-10-22T06:31:35;100091.13;;;8.55;69.23
63096;BME280;49184;55.596;37.770;2022-10-22T06:34:03;100094.53;;;8.81;69.27
63096;BME280;49184;55.596;37.770;2022-10-22T06:36:31;100105.75;;;8.74;68.46
63096;BME280;49184;55.596;37.770;2022-10-22T06:38:58;100153.34;;;8.92;68.65
63096;BME280;49184;55.596;37.770;2022-10-22T06:41:26;100137.34;;;8.75;69.27
63096;BME280;49184;55.596;37.770;2022-10-22T06:43:53;100157.25;;;8.81;69.67
63096;BME280;49184;55.596;37.770;2022-10-22T06:46:22;100141.50;;;8.62;69.12
63096;BME280;49184;55.596;37.770;2022-10-22T06:48:58;100124.63;;;8.55;69.74
63096;BME280;49184;55.596;37.770;2022-10-22T06:51:25;100134.19;;;8.53;69.70
63096;BME280;49184;55.596;37.770;2022-10-22T06:53:53;100123.31;;;8.37;70.00
63096;BME280;49184;55.596;37.770;2022-10-22T06:56:22;100163.25;;;8.73;69.71
63096;BME280;49184;55.596;37.770;2022-10-22T06:58:52;100161.59;;;8.82;69.11
63096;BME280;49184;55.596;37.770;2022-10-22T07:01:22;100156.66;;;8.84;69.23
63096;BME280;49184;55.596;37.770;2022-10-22T07:03:52;100166.38;;;9.00;69.28
63096;BME280;49184;55.596;37.770;2022-10-22T07:06:21;100148.16;;;8.90;69.41
63096;BME280;49184;55.596;37.770;2022-10-22T07:08:47;100157.69;;;8.98;69.46
63096;BME280;49184;55.596;37.770;2022-10-22T07:11:36;100175.72;;;8.94;68.86
63096;BME280;49184;55.596;37.770;2022-10-22T07:14:07;100121.81;;;8.70;68.92
63096;BME280;49184;55.596;37.770;2022-10-22T07:16:35;100103.91;;;8.59;68.75
63096;BME280;49184;55.596;37.770;2022-10-22T07:19:02;100172.69;;;9.01;68.30
63096;BME280;49184;55.596;37.770;2022-10-22T07:21:30;100162.03;;;8.99;68.57
63096;BME280;49184;55.596;37.770;2022-10-22T07:23:59;100171.25;;;9.08;67.91
63096;BME280;49184;55.596;37.770;2022-10-22T07:26:26;100138.16;;;8.81;68.80
63096;BME280;49184;55.596;37.770;2022-10-22T07:28:59;100159.53;;;9.08;68.99
63096;BME280;49184;55.596;37.770;2022-10-22T07:31:35;100164.44;;;9.11;68.17
63096;BME280;49184;55.596;37.770;2022-10-22T07:34:04;100157.94;;;9.02;67.57
63096;BME280;49184;55.596;37.770;2022-10-22T07:36:31;100172.31;;;9.17;68.17
63096;BME280;49184;55.596;37.770;2022-10-22T07:38:58;100151.44;;;8.92;68.57
63096;BME280;49184;55.596;37.770;2022-10-22T07:41:26;100162.06;;;8.94;68.50
63096;BME280;49184;55.596;37.770;2022-10-22T07:43:53;100150.06;;;8.95;68.40
63096;BME280;49184;55.596;37.770;2022-10-22T07:46:20;100156.56;;;8.99;68.33
63096;BME280;49184;55.596;37.770;2022-10-22T07:48:47;100147.50;;;9.14;69.47
63096;BME280;49184;55.596;37.770;2022-10-22T07:51:21;100152.84;;;9.29;68.86
63096;BME280;49184;55.596;37.770;2022-10-22T07:54:01;100159.72;;;9.22;67.57
63096;BME280;49184;55.596;37.770;2022-10-22T07:56:27;100101.81;;;8.90;67.66
63096;BME280;49184;55.596;37.770;2022-10-22T07:58:59;100177.81;;;9.47;67.23
63096;BME280;49184;55.596;37.770;2022-10-22T08:01:28;100139.03;;;9.10;65.51
63096;BME280;49184;55.596;37.770;2022-10-22T08:03:55;100157.06;;;9.11;65.69
63096;BME280;49184;55.596;37.770;2022-10-22T08:06:21;100168.09;;;9.30;66.12
63096;BME280;49184;55.596;37.770;2022-10-22T08:08:47;100130.03;;;9.10;65.47
63096;BME280;49184;55.596;37.770;2022-10-22T08:11:14;100159.41;;;9.23;66.56
63096;BME280;49184;55.596;37.770;2022-10-22T08:13:43;100142.94;;;9.04;66.24
63096;BME280;49184;55.596;37.770;2022-10-22T08:16:09;100151.63;;;9.06;65.56
63096;BME280;49184;55.596;37.770;2022-10-22T08:18:36;100171.13;;;9.29;66.35
63096;BME280;49184;55.596;37.770;2022-10-22T08:21:04;100136.03;;;9.12;65.90
63096;BME280;49184;55.596;37.770;2022-10-22T08:23:30;100179.47;;;9.48;65.46
63096;BME280;49184;55.596;37.770;2022-10-22T08:25:56;100153.13;;;9.28;65.61
63096;BME280;49184;55.596;37.770;2022-10-22T08:28:23;100180.53;;;9.47;66.46
63096;BME280;49184;55.596;37.770;2022-10-22T08:30:50;100136.28;;;9.21;66.16
63096;BME280;49184;55.596;37.770;2022-10-22T08:33:16;100125.34;;;9.21;65.53
63096;BME280;49184;55.596;37.770;2022-10-22T08:35:52;100159.13;;;9.64;66.34
63096;BME280;49184;55.596;37.770;2022-10-22T08:38:22;100151.03;;;9.54;65.80
63096;BME280;49184;55.596;37.770;2022-10-22T08:40:59;100144.38;;;9.65;64.73
63096;BME280;49184;55.596;37.770;2022-10-22T08:49:24;100139.34;;;9.77;64.25
63096;BME280;49184;55.596;37.770;2022-10-22T08:51:56;100141.06;;;9.68;63.96
63096;BME280;49184;55.596;37.770;2022-10-22T08:54:49;100182.03;;;9.97;64.31
63096;BME280;49184;55.596;37.770;2022-10-22T09:01:16;100145.72;;;9.68;63.72
63096;BME280;49184;55.596;37.770;2022-10-22T09:03:56;100125.75;;;9.72;64.24
63096;BME280;49184;55.596;37.770;2022-10-22T09:06:25;100152.28;;;9.96;63.55
63096;BME280;49184;55.596;37.770;2022-10-22T09:08:53;100130.03;;;9.83;63.74
63096;BME280;49184;55.596;37.770;2022-10-22T09:11:26;100172.84;;;10.17;63.57
63096;BME280;49184;55.596;37.770;2022-10-22T09:13:55;100146.78;;;10.01;63.00
63096;BME280;49184;55.596;37.770;2022-10-22T09:22:41;100155.09;;;10.15;62.18
63096;BME280;49184;55.596;37.770;2022-10-22T09:25:23;100167.84;;;10.24;61.97
63096;BME280;49184;55.596;37.770;2022-10-22T09:27:50;100145.78;;;10.16;62.17
63096;BME280;49184;55.596;37.770;2022-10-22T09:30:25;100150.22;;;10.11;62.31
63096;BME280;49184;55.596;37.770;2022-10-22T09:35:57;100168.09;;;10.23;61.97
63096;BME280;49184;55.596;37.770;2022-10-22T09:38:29;100125.19;;;9.99;61.44
63096;BME280;49184;55.596;37.770;2022-10-22T09:40:58;100158.06;;;10.18;61.74
63096;BME280;49184;55.596;37.770;2022-10-22T09:43:26;100121.22;;;9.86;61.46
63096;BME280;49184;55.596;37.770;2022-10-22T09:46:04;100164.88;;;10.21;61.26
63096;BME280;49184;55.596;37.770;2022-10-22T09:48:41;100138.22;;;10.07;61.73
63096;BME280;49184;55.596;37.770;2022-10-22T09:51:39;100161.25;;;10.30;61.91
63096;BME280;49184;55.596;37.770;2022-10-22T09:54:38;100161.03;;;10.22;61.73
63096;BME280;49184;55.596;37.770;2022-10-22T09:57:20;100154.31;;;10.09;61.97
63096;BME280;49184;55.596;37.770;2022-10-22T09:59:50;100161.25;;;10.25;62.22
63096;BME280;49184;55.596;37.770;2022-10-22T10:02:21;100142.81;;;10.12;61.74
63096;BME280;49184;55.596;37.770;2022-10-22T10:04:54;100159.44;;;10.16;62.15
63096;BME280;49184;55.596;37.770;2022-10-22T10:07:27;100118.81;;;10.09;61.81
63096;BME280;49184;55.596;37.770;2022-10-22T10:09:55;100097.84;;;9.75;61.40
63096;BME280;49184;55.596;37.770;2022-10-22T10:23:13;100138.13;;;10.18;61.11
63096;BME280;49184;55.596;37.770;2022-10-22T10:25:54;100132.22;;;10.34;60.85
63096;BME280;49184;55.596;37.770;2022-10-22T10:28:37;100081.50;;;9.99;60.20
63096;BME280;49184;55.596;37.770;2022-10-22T10:31:31;100134.66;;;10.36;60.26
63096;BME280;49184;55.596;37.770;2022-10-22T10:45:17;100097.72;;;10.15;59.82
63096;BME280;49184;55.596;37.770;2022-10-22T10:50:36;100099.78;;;10.28;60.37
63096;BME280;49184;55.596;37.770;2022-10-22T10:56:34;100086.13;;;10.23;59.79
63096;BME280;49184;55.596;37.770;2022-10-22T11:07:25;100105.66;;;10.40;59.78
63096;BME280;49184;55.596;37.770;2022-10-22T11:09:58;100093.59;;;10.17;59.18
63096;BME280;49184;55.596;37.770;2022-10-22T11:12:35;100087.47;;;10.30;60.02
63096;BME280;49184;55.596;37.770;2022-10-22T11:15:19;100089.97;;;10.27;59.69
63096;BME280;49184;55.596;37.770;2022-10-22T11:17:47;100107.41;;;10.31;59.67
63096;BME280;49184;55.596;37.770;2022-10-22T11:20:40;100101.44;;;10.24;60.12
63096;BME280;49184;55.596;37.770;2022-10-22T11:26:29;100083.41;;;9.99;60.17
63096;BME280;49184;55.596;37.770;2022-10-22T11:28:57;100084.81;;;9.96;60.70
63096;BME280;49184;55.596;37.770;2022-10-22T11:31:25;100094.22;;;10.09;61.21
63096;BME280;49184;55.596;37.770;2022-10-22T11:36:20;100108.69;;;10.09;60.63
63096;BME280;49184;55.596;37.770;2022-10-22T11:38:48;100084.81;;;9.96;61.10
63096;BME280;49184;55.596;37.770;2022-10-22T11:41:22;100061.22;;;9.81;60.64
63096;BME280;49184;55.596;37.770;2022-10-22T11:43:57;100088.47;;;10.10;60.53
63096;BME280;49184;55.596;37.770;2022-10-22T11:46:42;100091.72;;;10.12;60.70
63096;BME280;49184;55.596;37.770;2022-10-22T11:51:42;100075.00;;;9.95;60.74
63096;BME280;49184;55.596;37.770;2022-10-22T11:54:28;100089.22;;;10.16;60.42
63096;BME280;49184;55.596;37.770;2022-10-22T12:04:56;100064.41;;;10.12;60.42
63096;BME280;49184;55.596;37.770;2022-10-22T12:10:21;100052.16;;;10.10;60.69
63096;BME280;49184;55.596;37.770;2022-10-22T12:13:03;100061.63;;;10.18;60.34
63096;BME280;49184;55.596;37.770;2022-10-22T12:15:46;100082.66;;;10.17;60.15
63096;BME280;49184;55.596;37.770;2022-10-22T12:18:14;100068.00;;;10.08;60.47
63096;BME280;49184;55.596;37.770;2022-10-22T12:20:41;100054.41;;;10.03;60.60
63096;BME280;49184;55.596;37.770;2022-10-22T12:23:11;100069.59;;;10.14;60.64
63096;BME280;49184;55.596;37.770;2022-10-22T12:25:38;100077.78;;;10.14;60.81
63096;BME280;49184;55.596;37.770;2022-10-22T12:28:10;100052.19;;;10.05;60.82
63096;BME280;49184;55.596;37.770;2022-10-22T12:30:38;100045.53;;;9.92;60.94
63096;BME280;49184;55.596;37.770;2022-10-22T12:33:16;100074.06;;;10.05;60.76
63096;BME280;49184;55.596;37.770;2022-10-22T12:35:45;100071.38;;;10.00;61.19
63096;BME280;49184;55.596;37.770;2022-10-22T12:38:15;100061.56;;;9.99;61.15
63096;BME280;49184;55.596;37.770;2022-10-22T12:40:42;100063.13;;;10.05;61.28
63096;BME280;49184;55.596;37.770;2022-10-22T12:43:14;100064.75;;;10.06;61.33
63096;BME280;49184;55.596;37.770;2022-10-22T12:45:44;100056.84;;;10.04;61.08
63096;BME280;49184;55.596;37.770;2022-10-22T12:48:29;100020.28;;;9.76;61.63
63096;BME280;49184;55.596;37.770;2022-10-22T12:51:00;100046.06;;;9.94;60.89
63096;BME280;49184;55.596;37.770;2022-10-22T12:53:35;100032.22;;;9.85;61.68
63096;BME280;49184;55.596;37.770;2022-10-22T12:56:04;100044.47;;;9.88;61.36
63096;BME280;49184;55.596;37.770;2022-10-22T12:58:40;100049.94;;;9.88;61.65
63096;BME280;49184;55.596;37.770;2022-10-22T13:01:16;100057.22;;;9.98;61.68
63096;BME280;49184;55.596;37.770;2022-10-22T13:03:50;100054.28;;;9.89;61.10
63096;BME280;49184;55.596;37.770;2022-10-22T13:06:28;100018.69;;;9.75;61.72
63096;BME280;49184;55.596;37.770;2022-10-22T13:09:13;100021.28;;;9.85;61.19
63096;BME280;49184;55.596;37.770;2022-10-22T13:11:47;100047.31;;;10.02;61.44
63096;BME280;49184;55.596;37.770;2022-10-22T13:14:26;100049.00;;;9.98;61.26
63096;BME280;49184;55.596;37.770;2022-10-22T13:22:33;100040.06;;;9.92;61.11
63096;BME280;49184;55.596;37.770;2022-10-22T13:27:54;100038.47;;;9.86;61.43
63096;BME280;49184;55.596;37.770;2022-10-22T13:30:26;100043.91;;;9.91;61.53
63096;BME280;49184;55.596;37.770;2022-10-22T13:32:55;100037.44;;;9.82;61.31
63096;BME280;49184;55.596;37.770;2022-10-22T13:35:26;100036.31;;;9.59;61.94
63096;BME280;49184;55.596;37.770;2022-10-22T13:37:54;100044.50;;;9.59;62.65
63096;BME280;49184;55.596;37.770;2022-10-22T13:40:21;100037.44;;;9.58;62.58
63096;BME280;49184;55.596;37.770;2022-10-22T13:42:50;100030.00;;;9.63;62.47
63096;BME280;49184;55.596;37.770;2022-10-22T13:45:19;100032.78;;;9.58;61.83
63096;BME280;49184;55.596;37.770;2022-10-22T13:47:52;100008.56;;;9.52;62.36
63096;BME280;49184;55.596;37.770;2022-10-22T13:50:20;100033.72;;;9.73;62.49
63096;BME280;49184;55.596;37.770;2022-10-22T13:52:53;100033.47;;;9.69;62.18
63096;BME280;49184;55.596;37.770;2022-10-22T13:55:25;100030.53;;;9.65;62.01
63096;BME280;49184;55.596;37.770;2022-10-22T13:58:05;100022.69;;;9.59;62.18
63096;BME280;49184;55.596;37.770;2022-10-22T14:00:37;100000.25;;;9.38;62.27
63096;BME280;49184;55.596;37.770;2022-10-22T14:03:11;100010.81;;;9.45;62.01
63096;BME280;49184;55.596;37.770;2022-10-22T14:05:38;100028.94;;;9.59;62.46
63096;BME280;49184;55.596;37.770;2022-10-22T14:08:10;99997.97;;;9.45;62.11
63096;BME280;49184;55.596;37.770;2022-10-22T14:10:37;100024.81;;;9.62;61.94
63096;BME280;49184;55.596;37.770;2022-10-22T14:13:09;100010.72;;;9.55;62.05
63096;BME280;49184;55.596;37.770;2022-10-22T14:15:39;99966.19;;;9.30;61.75
63096;BME280;49184;55.596;37.770;2022-10-22T14:18:13;99936.63;;;9.13;61.82
63096;BME280;49184;55.596;37.770;2022-10-22T14:20:41;99966.47;;;9.34;62.13
63096;BME280;49184;55.596;37.770;2022-10-22T14:23:20;99992.78;;;9.44;62.23
63096;BME280;49184;55.596;37.770;2022-10-22T14:25:47;100017.56;;;9.52;62.68
63096;BME280;49184;55.596;37.770;2022-10-22T14:28:16;99996.69;;;9.37;62.60
63096;BME280;49184;55.596;37.770;2022-10-22T14:30:46;100028.38;;;9.62;62.45
63096;BME280;49184;55.596;37.770;2022-10-22T14:33:20;100005.59;;;9.48;62.68
63096;BME280;49184;55.596;37.770;2022-10-22T14:35:49;99991.81;;;9.34;62.49
63096;BME280;49184;55.596;37.770;2022-10-22T14:38:16;99974.13;;;9.27;62.74
63096;BME280;49184;55.596;37.770;2022-10-22T14:40:44;99961.13;;;9.18;62.08
63096;BME280;49184;55.596;37.770;2022-10-22T14:43:11;100041.25;;;9.57;62.72
63096;BME280;49184;55.596;37.770;2022-10-22T14:45:39;99971.81;;;9.15;62.69
63096;BME280;49184;55.596;37.770;2022-10-22T14:48:06;99967.41;;;9.19;62.93
63096;BME280;49184;55.596;37.770;2022-10-22T14:50:33;99976.19;;;9.40;62.47
63096;BME280;49184;55.596;37.770;2022-10-22T14:52:59;99994.38;;;9.50;62.08
63096;BME280;49184;55.596;37.770;2022-10-22T14:55:28;100037.25;;;9.73;62.47
63096;BME280;49184;55.596;37.770;2022-10-22T14:57:54;100010.94;;;9.58;61.81
63096;BME280;49184;55.596;37.770;2022-10-22T15:00:21;100000.84;;;9.59;62.07
63096;BME280;49184;55.596;37.770;2022-10-22T15:02:47;99991.06;;;9.53;62.02
63096;BME280;49184;55.596;37.770;2022-10-22T15:05:17;99950.44;;;9.27;61.94
63096;BME280;49184;55.596;37.770;2022-10-22T15:07:44;99986.63;;;9.33;62.05
63096;BME280;49184;55.596;37.770;2022-10-22T15:10:10;100037.09;;;9.64;62.21
63096;BME280;49184;55.596;37.770;2022-10-22T15:12:39;99948.75;;;9.02;62.45
63096;BME280;49184;55.596;37.770;2022-10-22T15:15:06;99996.03;;;9.22;62.69
63096;BME280;49184;55.596;37.770;2022-10-22T15:17:34;99991.38;;;9.22;63.03